createdAt,value
2022-11-02T00:02:27.064Z,4.10
2022-11-02T00:04:55.750Z,3.80
2022-11-02T00:07:24.170Z,3.70
2022-11-02T00:09:52.586Z,3.70
2022-11-02T00:12:21.099Z,3.30
2022-11-02T00:14:49.520Z,3.40
2022-11-02T00:17:19.336Z,3.80
2022-11-02T00:19:47.935Z,2.70
2022-11-02T00:22:16.476Z,2.80
2022-11-02T00:24:44.955Z,3.20
2022-11-02T00:27:14.500Z,3.40
2022-11-02T00:29:42.948Z,3.40
2022-11-02T00:32:11.380Z,3.80
2022-11-02T00:34:41.280Z,3.17
2022-11-02T00:37:09.700Z,3.50
2022-11-02T00:39:38.119Z,2.70
2022-11-02T00:42:06.877Z,3.70
2022-11-02T00:44:35.287Z,3.43
2022-11-02T00:47:03.739Z,3.40
2022-11-02T00:49:32.276Z,3.03
2022-11-02T00:52:02.082Z,3.00
2022-11-02T00:54:30.969Z,3.30
2022-11-02T00:57:02.553Z,2.90
2022-11-02T00:59:30.996Z,2.70
2022-11-02T01:01:59.528Z,2.53
2022-11-02T01:04:28.200Z,3.10
2022-11-02T01:06:56.624Z,2.50
2022-11-02T01:09:26.507Z,2.20
2022-11-02T01:11:55.309Z,2.13
2022-11-02T01:14:24.135Z,2.33
2022-11-02T01:16:52.810Z,2.00
2022-11-02T01:19:21.421Z,2.23
2022-11-02T01:21:50.163Z,2.30
2022-11-02T01:24:18.691Z,1.87
2022-11-02T01:26:51.536Z,1.70
2022-11-02T01:29:19.971Z,2.30
2022-11-02T01:31:48.656Z,2.00
2022-11-02T01:34:17.384Z,1.90
2022-11-02T01:36:46.615Z,2.10
2022-11-02T01:39:15.280Z,1.70
2022-11-02T01:41:44.037Z,2.00
2022-11-02T01:44:33.039Z,2.10
2022-11-02T01:47:03.553Z,1.97
2022-11-02T01:49:34.200Z,1.70
2022-11-02T01:52:07.409Z,2.20
2022-11-02T01:54:39.539Z,2.00
2022-11-02T01:57:08.935Z,2.03
2022-11-02T01:59:40.745Z,2.30
2022-11-02T02:02:12.579Z,2.50
2022-11-02T02:04:41.502Z,2.80
2022-11-02T02:07:10.045Z,2.50
2022-11-02T02:09:38.538Z,2.40
2022-11-02T02:12:07.835Z,2.50
2022-11-02T02:14:37.223Z,2.80
2022-11-02T02:17:18.410Z,3.40
2022-11-02T02:19:50.260Z,2.70
2022-11-02T02:22:34.644Z,2.47
2022-11-02T02:25:14.019Z,2.73
2022-11-02T02:27:54.487Z,2.50
2022-11-02T02:30:23.256Z,3.33
2022-11-02T02:32:54.640Z,2.80
2022-11-02T02:35:29.051Z,2.83
2022-11-02T02:37:59.068Z,2.90
2022-11-02T02:40:31.999Z,3.67
2022-11-02T02:43:06.891Z,3.63
2022-11-02T02:45:36.819Z,2.67
2022-11-02T02:48:08.364Z,3.33
2022-11-02T02:50:39.284Z,3.30
2022-11-02T02:53:08.976Z,3.47
2022-11-02T02:55:39.896Z,3.10
2022-11-02T02:58:14.112Z,3.57
2022-11-02T03:00:42.831Z,3.23
2022-11-02T03:03:17.822Z,3.70
2022-11-02T03:05:57.385Z,3.27
2022-11-02T03:08:25.811Z,3.33
2022-11-02T03:10:59.033Z,3.30
2022-11-02T03:13:37.478Z,3.37
2022-11-02T03:16:09.475Z,3.67
2022-11-02T03:18:40.775Z,4.00
2022-11-02T03:21:14.196Z,3.63
2022-11-02T03:23:45.804Z,3.57
2022-11-02T03:26:16.372Z,3.80
2022-11-02T03:28:52.433Z,3.60
2022-11-02T03:31:25.151Z,3.50
2022-11-02T03:33:57.186Z,4.07
2022-11-02T03:36:29.352Z,4.03
2022-11-02T03:38:59.522Z,3.80
2022-11-02T03:41:29.083Z,3.50
2022-11-02T03:44:02.218Z,3.80
2022-11-02T03:46:31.881Z,3.80
2022-11-02T03:49:06.027Z,4.17
2022-11-02T03:51:39.284Z,3.40
2022-11-02T03:54:10.804Z,3.60
2022-11-02T03:56:41.495Z,3.47
2022-11-02T03:59:11.327Z,3.90
2022-11-02T04:01:41.015Z,3.60
2022-11-02T04:04:09.678Z,3.73
2022-11-02T04:06:38.519Z,3.73
2022-11-02T04:09:07.436Z,3.90
2022-11-02T04:11:53.224Z,4.03
2022-11-02T04:14:41.539Z,3.73
2022-11-02T04:17:28.467Z,4.07
2022-11-02T04:19:56.995Z,4.23
2022-11-02T04:22:42.993Z,3.83
2022-11-02T04:25:18.796Z,3.57
2022-11-02T04:27:48.526Z,3.80
2022-11-02T04:30:19.728Z,3.30
2022-11-02T04:33:06.630Z,3.50
2022-11-02T04:35:35.660Z,3.87
2022-11-02T04:38:22.162Z,3.80
2022-11-02T04:41:10.899Z,3.37
2022-11-02T04:43:39.443Z,3.90
2022-11-02T04:46:09.256Z,3.57
2022-11-02T04:48:37.804Z,3.43
2022-11-02T04:51:06.403Z,3.50
2022-11-02T04:53:35.404Z,3.13
2022-11-02T04:56:04.043Z,3.80
2022-11-02T04:58:32.492Z,3.40
2022-11-02T05:01:00.921Z,3.43
2022-11-02T05:03:30.836Z,3.50
2022-11-02T05:05:59.256Z,3.90
2022-11-02T05:08:27.682Z,4.30
2022-11-02T05:10:56.484Z,3.77
2022-11-02T05:13:24.917Z,3.87
2022-11-02T05:15:53.512Z,3.67
2022-11-02T05:20:58.290Z,3.83
2022-11-02T05:23:27.068Z,3.80
2022-11-02T05:25:56.291Z,3.57
2022-11-02T05:28:24.735Z,3.47
2022-11-02T05:30:53.984Z,3.80
2022-11-02T05:33:26.626Z,3.80
2022-11-02T05:35:59.448Z,3.80
2022-11-02T05:38:28.581Z,3.50
2022-11-02T05:40:57.919Z,3.63
2022-11-02T05:43:26.789Z,3.20
2022-11-02T05:45:56.219Z,3.27
2022-11-02T05:48:25.175Z,3.60
2022-11-02T05:50:57.609Z,3.40
2022-11-02T05:53:27.951Z,3.27
2022-11-02T05:55:59.308Z,3.57
2022-11-02T05:58:27.774Z,3.60
2022-11-02T06:00:56.255Z,3.30
2022-11-02T06:03:24.803Z,3.70
2022-11-02T06:05:57.926Z,3.67
2022-11-02T06:08:28.159Z,3.40
2022-11-02T06:10:56.604Z,2.90
2022-11-02T06:13:25.028Z,3.07
2022-11-02T06:15:53.552Z,3.07
2022-11-02T06:18:21.996Z,3.77
2022-11-02T06:20:50.528Z,3.80
2022-11-02T06:23:19.074Z,3.93
2022-11-02T06:25:53.631Z,3.30
2022-11-02T06:28:22.188Z,3.50
2022-11-02T06:30:51.019Z,3.20
2022-11-02T06:33:19.861Z,3.80
2022-11-02T06:35:48.855Z,3.20
2022-11-02T06:38:17.533Z,3.30
2022-11-02T06:40:46.053Z,3.80
2022-11-02T06:43:17.293Z,3.13
2022-11-02T06:45:46.826Z,2.97
2022-11-02T06:48:15.373Z,3.10
2022-11-02T06:50:43.929Z,3.37
2022-11-02T06:53:12.429Z,3.40
2022-11-02T06:55:40.983Z,3.37
2022-11-02T06:58:09.592Z,3.33
2022-11-02T07:00:39.455Z,2.97
2022-11-02T07:03:08.967Z,3.07
2022-11-02T07:05:37.964Z,3.17
2022-11-02T07:08:06.835Z,3.40
2022-11-02T07:10:36.404Z,3.67
2022-11-02T07:13:05.036Z,3.50
2022-11-02T07:15:33.840Z,3.10
2022-11-02T07:18:03.701Z,3.33
2022-11-02T07:20:32.110Z,3.23
2022-11-02T07:23:02.207Z,3.30
2022-11-02T07:25:32.163Z,3.03
2022-11-02T07:28:01.027Z,3.20
2022-11-02T07:30:29.620Z,3.07
2022-11-02T07:32:58.044Z,3.20
2022-11-02T07:35:27.881Z,2.60
2022-11-02T07:38:00.059Z,2.77
2022-11-02T07:40:29.015Z,3.10
2022-11-02T07:42:57.697Z,3.00
2022-11-02T07:45:27.040Z,3.23
2022-11-02T07:47:55.635Z,3.80
2022-11-02T07:50:24.734Z,3.10
2022-11-02T07:52:55.493Z,2.40
2022-11-02T07:55:25.083Z,2.70
2022-11-02T07:57:56.304Z,2.63
2022-11-02T08:00:25.098Z,3.00
2022-11-02T08:02:56.245Z,3.07
2022-11-02T08:05:24.780Z,3.63
2022-11-02T08:07:59.686Z,2.70
2022-11-02T08:10:28.700Z,2.53
2022-11-02T08:12:57.553Z,2.40
2022-11-02T08:15:25.994Z,2.40
2022-11-02T08:18:02.214Z,2.30
2022-11-02T08:20:30.925Z,2.50
2022-11-02T08:23:00.746Z,2.50
2022-11-02T08:25:29.324Z,2.60
2022-11-02T08:27:59.248Z,2.37
2022-11-02T08:30:28.020Z,2.10
2022-11-02T08:32:57.444Z,2.87
2022-11-02T08:35:26.135Z,2.67
2022-11-02T08:37:57.736Z,2.63
2022-11-02T08:40:27.850Z,2.47
2022-11-02T08:42:59.376Z,3.07
2022-11-02T08:45:28.189Z,2.50
2022-11-02T08:47:56.745Z,2.40
2022-11-02T08:50:25.595Z,2.40
2022-11-02T08:52:54.157Z,2.60
2022-11-02T08:55:22.616Z,2.87
2022-11-02T08:57:53.219Z,2.73
2022-11-02T09:00:22.342Z,2.50
2022-11-02T09:03:00.575Z,2.37
2022-11-02T09:05:29.191Z,2.90
2022-11-02T09:07:58.634Z,2.73
2022-11-02T09:10:27.303Z,2.10
2022-11-02T09:12:57.645Z,2.53
2022-11-02T09:15:26.083Z,2.63
2022-11-02T09:17:54.496Z,2.43
2022-11-02T09:20:23.468Z,2.43
2022-11-02T09:22:52.209Z,2.40
2022-11-02T09:25:20.692Z,2.80
2022-11-02T09:27:55.603Z,2.27
2022-11-02T09:30:26.458Z,2.60
2022-11-02T09:32:58.433Z,2.10
2022-11-02T09:35:27.435Z,2.43
2022-11-02T09:37:55.989Z,2.00
2022-11-02T09:40:25.739Z,2.60
2022-11-02T09:43:00.876Z,2.70
2022-11-02T09:45:32.516Z,2.77
2022-11-02T09:48:16.842Z,3.00
2022-11-02T09:50:50.072Z,2.93
2022-11-02T09:53:20.984Z,2.60
2022-11-02T09:55:51.948Z,2.80
2022-11-02T09:58:23.231Z,2.43
2022-11-02T10:00:57.983Z,2.20
2022-11-02T10:03:35.949Z,2.60
2022-11-02T10:06:06.285Z,2.50
2022-11-02T10:08:40.592Z,2.50
2022-11-02T10:11:12.856Z,2.70
2022-11-02T10:13:44.346Z,2.60
2022-11-02T10:16:16.668Z,2.70
2022-11-02T10:18:49.387Z,3.00
2022-11-02T10:21:20.861Z,2.37
2022-11-02T10:23:51.559Z,2.33
2022-11-02T10:26:21.286Z,2.47
2022-11-02T10:28:50.784Z,2.03
2022-11-02T10:31:29.172Z,2.60
2022-11-02T10:33:58.624Z,2.40
2022-11-02T10:36:39.147Z,2.37
2022-11-02T10:39:22.377Z,2.43
2022-11-02T10:41:57.540Z,2.57
2022-11-02T10:44:32.156Z,2.03
2022-11-02T10:47:06.923Z,2.17
2022-11-02T10:49:50.172Z,2.40
2022-11-02T10:52:19.092Z,2.30
2022-11-02T10:54:47.622Z,2.17
2022-11-02T10:57:16.764Z,1.90
2022-11-02T10:59:45.411Z,2.00
2022-11-02T11:02:17.001Z,2.47
2022-11-02T11:04:45.921Z,1.60
2022-11-02T11:07:15.898Z,1.50
2022-11-02T11:09:48.807Z,1.40
2022-11-02T11:12:21.045Z,1.37
2022-11-02T11:20:34.209Z,1.60
2022-11-02T11:23:26.526Z,0.90
2022-11-02T11:25:59.420Z,1.00
2022-11-02T11:28:29.273Z,0.90
2022-11-02T11:31:05.512Z,0.80
2022-11-02T11:33:35.897Z,0.80
2022-11-02T11:36:07.008Z,0.63
2022-11-02T11:38:35.605Z,0.77
2022-11-02T11:41:04.232Z,0.50
2022-11-02T11:43:35.038Z,0.90
2022-11-02T11:46:06.862Z,0.63
2022-11-02T11:48:41.511Z,0.60
2022-11-02T11:51:25.668Z,0.63
2022-11-02T11:54:07.850Z,0.60
2022-11-02T11:56:36.408Z,0.40
2022-11-02T11:59:04.931Z,0.77
2022-11-02T12:01:40.849Z,0.63
2022-11-02T12:04:10.900Z,0.67
2022-11-02T12:06:44.383Z,1.00
2022-11-02T12:09:19.433Z,0.57
2022-11-02T12:11:53.948Z,0.70
2022-11-02T12:14:29.113Z,0.63
2022-11-02T12:17:04.204Z,0.70
2022-11-02T12:19:38.468Z,0.90
2022-11-02T12:22:13.583Z,0.90
2022-11-02T12:24:59.716Z,1.00
2022-11-02T12:27:34.899Z,0.73
2022-11-02T12:30:12.364Z,0.80
2022-11-02T12:32:58.643Z,0.70
2022-11-02T12:35:32.508Z,0.80
2022-11-02T12:38:10.151Z,1.10
2022-11-02T12:40:45.205Z,1.53
2022-11-02T12:43:21.200Z,1.03
2022-11-02T12:45:54.206Z,1.50
2022-11-02T12:48:24.656Z,1.00
2022-11-02T12:50:58.366Z,1.10
2022-11-02T12:53:41.795Z,1.00
2022-11-02T12:56:14.527Z,0.80
2022-11-02T12:58:43.327Z,0.73
2022-11-02T13:01:14.096Z,1.00
2022-11-02T13:03:48.769Z,0.90
2022-11-02T13:06:21.673Z,1.43
2022-11-02T13:08:52.804Z,1.00
2022-11-02T13:11:23.587Z,1.20
2022-11-02T13:13:54.715Z,0.73
2022-11-02T13:16:26.467Z,0.73
2022-11-02T13:18:56.392Z,1.27
2022-11-02T13:21:32.170Z,0.80
2022-11-02T13:24:01.652Z,0.80
2022-11-02T13:26:31.982Z,0.80
2022-11-02T13:29:04.473Z,1.00
2022-11-02T13:31:36.196Z,0.60
2022-11-02T13:34:06.475Z,0.93
2022-11-02T13:36:39.421Z,0.93
2022-11-02T13:39:10.876Z,1.13
2022-11-02T13:41:51.745Z,1.00
2022-11-02T13:44:44.262Z,0.90
2022-11-02T13:47:20.434Z,0.90
2022-11-02T13:49:51.709Z,0.90
2022-11-02T13:52:23.451Z,0.80
2022-11-02T13:54:53.582Z,0.80
2022-11-02T13:57:33.477Z,0.60
2022-11-02T14:00:02.568Z,0.80
2022-11-02T14:02:32.966Z,0.60
2022-11-02T14:05:02.699Z,0.70
2022-11-02T14:07:35.192Z,0.90
2022-11-02T14:10:06.897Z,0.80
2022-11-02T14:12:45.336Z,0.97
2022-11-02T14:15:43.797Z,0.73
2022-11-02T14:18:13.944Z,0.63
2022-11-02T14:20:43.258Z,0.70
2022-11-02T14:23:30.360Z,0.67
2022-11-02T14:26:00.552Z,1.00
2022-11-02T14:28:36.305Z,1.07
2022-11-02T14:31:19.558Z,0.93
2022-11-02T14:33:57.880Z,0.80
2022-11-02T14:36:36.588Z,0.93
2022-11-02T14:39:11.230Z,1.73
2022-11-02T14:41:57.592Z,1.10
2022-11-02T14:44:33.792Z,1.03
2022-11-02T14:47:05.471Z,0.90
2022-11-02T14:49:35.328Z,1.10
2022-11-02T14:52:04.998Z,0.60
2022-11-02T14:54:35.448Z,0.90
2022-11-02T14:57:06.974Z,1.20
2022-11-02T14:59:39.952Z,0.83
2022-11-02T15:02:11.564Z,1.00
2022-11-02T15:04:49.022Z,1.07
2022-11-02T15:07:20.715Z,1.00
2022-11-02T15:09:56.664Z,1.07
2022-11-02T15:12:36.439Z,0.83
2022-11-02T15:15:27.795Z,0.90
2022-11-02T15:18:00.579Z,1.00
2022-11-02T15:20:30.512Z,1.20
2022-11-02T15:23:01.772Z,1.10
2022-11-02T15:25:32.247Z,1.23
2022-11-02T15:28:05.902Z,1.20
2022-11-02T15:30:42.153Z,0.83
2022-11-02T15:33:17.448Z,1.00
2022-11-02T15:35:46.069Z,1.00
2022-11-02T15:38:18.513Z,0.83
2022-11-02T15:40:50.023Z,1.10
2022-11-02T15:43:39.560Z,1.10
2022-11-02T15:46:13.114Z,1.13
2022-11-02T15:48:45.620Z,1.23
2022-11-02T15:51:17.661Z,0.90
2022-11-02T15:53:57.939Z,1.10
2022-11-02T15:56:50.063Z,1.03
2022-11-02T15:59:33.329Z,1.23
2022-11-02T16:02:12.486Z,0.90
2022-11-02T16:04:43.611Z,1.53
2022-11-02T16:07:17.358Z,1.13
2022-11-02T16:09:46.990Z,1.20
2022-11-02T16:12:17.148Z,1.50
2022-11-02T16:14:46.268Z,1.17
2022-11-02T16:17:23.008Z,1.10
2022-11-02T16:19:51.514Z,2.27
2022-11-02T16:22:24.334Z,0.90
2022-11-02T16:24:53.493Z,1.03
2022-11-02T16:27:22.500Z,1.30
2022-11-02T16:29:51.656Z,1.33
2022-11-02T16:32:20.232Z,1.30
2022-11-02T16:34:50.072Z,1.00
2022-11-02T16:37:19.213Z,1.00
2022-11-02T16:39:48.761Z,1.27
2022-11-02T16:42:18.179Z,1.20
2022-11-02T16:44:56.066Z,1.23
2022-11-02T16:47:31.520Z,1.07
2022-11-02T16:50:01.387Z,0.83
2022-11-02T16:52:32.076Z,1.10
2022-11-02T16:55:00.640Z,1.20
2022-11-02T16:57:30.212Z,1.30
2022-11-02T16:59:59.304Z,1.20
2022-11-02T17:02:32.598Z,1.23
2022-11-02T17:05:06.176Z,1.20
2022-11-02T17:07:37.570Z,1.10
2022-11-02T17:10:06.812Z,1.30
2022-11-02T17:12:36.652Z,1.30
2022-11-02T17:15:06.604Z,1.50
2022-11-02T17:17:39.739Z,1.53
2022-11-02T17:20:17.342Z,2.07
2022-11-02T17:22:53.550Z,1.30
2022-11-02T17:25:23.517Z,1.40
2022-11-02T17:27:52.407Z,1.13
2022-11-02T17:30:42.541Z,1.60
2022-11-02T17:33:11.964Z,1.47
2022-11-02T17:35:46.536Z,1.50
2022-11-02T17:38:15.096Z,1.40
2022-11-02T17:40:43.780Z,1.40
2022-11-02T17:43:11.251Z,1.33
2022-11-02T17:45:39.944Z,1.20
2022-11-02T17:48:09.823Z,1.10
2022-11-02T17:50:39.117Z,1.60
2022-11-02T17:53:13.269Z,1.60
2022-11-02T17:55:42.208Z,1.47
2022-11-02T17:58:13.739Z,2.03
2022-11-02T18:00:42.272Z,1.60
2022-11-02T18:03:15.249Z,1.10
2022-11-02T18:05:46.765Z,1.60
2022-11-02T18:08:20.192Z,1.50
2022-11-02T18:10:49.377Z,1.30
2022-11-02T18:13:18.686Z,1.40
2022-11-02T18:15:47.269Z,1.13
2022-11-02T18:18:16.104Z,1.30
2022-11-02T18:20:45.088Z,1.20
2022-11-02T18:23:16.690Z,1.70
2022-11-02T18:25:46.620Z,1.50
2022-11-02T18:28:15.217Z,1.57
2022-11-02T18:30:44.382Z,1.57
2022-11-02T18:33:14.042Z,1.60
2022-11-02T18:35:44.324Z,1.60
2022-11-02T18:38:13.160Z,1.63
2022-11-02T18:40:41.589Z,1.43
2022-11-02T18:43:11.723Z,1.87
2022-11-02T18:45:40.148Z,1.30
2022-11-02T18:48:09.706Z,1.10
2022-11-02T18:50:38.360Z,1.20
2022-11-02T18:53:06.771Z,1.20
2022-11-02T18:55:35.188Z,1.00
2022-11-02T18:58:04.172Z,1.23
2022-11-02T19:00:34.288Z,1.30
2022-11-02T19:03:02.724Z,1.43
2022-11-02T19:05:49.329Z,1.00
2022-11-02T19:08:35.312Z,1.90
2022-11-02T19:11:03.896Z,1.10
2022-11-02T19:13:32.323Z,0.80
2022-11-02T19:16:02.130Z,1.70
2022-11-02T19:18:30.707Z,0.97
2022-11-02T19:21:00.008Z,1.10
2022-11-02T19:23:28.407Z,1.20
2022-11-02T19:25:56.915Z,1.00
2022-11-02T19:28:25.348Z,1.57
2022-11-02T19:30:53.760Z,1.30
2022-11-02T19:33:23.669Z,1.37
2022-11-02T19:35:58.431Z,1.07
2022-11-02T19:38:27.229Z,1.30
2022-11-02T19:41:02.540Z,1.00
2022-11-02T19:43:31.121Z,1.20
2022-11-02T19:46:03.127Z,0.93
2022-11-02T19:48:33.452Z,0.90
2022-11-02T19:51:08.999Z,1.10
2022-11-02T19:53:37.800Z,1.20
2022-11-02T19:56:07.136Z,0.97
2022-11-02T19:58:35.580Z,1.37
2022-11-02T20:01:07.524Z,1.00
2022-11-02T20:03:37.725Z,1.33
2022-11-02T20:06:07.381Z,1.20
2022-11-02T20:08:36.160Z,1.00
2022-11-02T20:11:05.617Z,1.10
2022-11-02T20:13:34.914Z,1.43
2022-11-02T20:16:03.811Z,1.00
2022-11-02T20:18:32.688Z,1.00
2022-11-02T20:21:06.140Z,0.90
2022-11-02T20:23:35.564Z,0.90
2022-11-02T20:26:04.887Z,0.90
2022-11-02T20:28:33.427Z,1.17
2022-11-02T20:31:01.927Z,1.00
2022-11-02T20:33:30.372Z,1.43
2022-11-02T20:35:58.796Z,0.93
2022-11-02T20:38:28.675Z,1.10
2022-11-02T20:40:57.840Z,0.70
2022-11-02T20:43:26.255Z,0.87
2022-11-02T20:48:52.893Z,1.10
2022-11-02T20:51:22.376Z,0.90
2022-11-02T20:53:52.765Z,1.00
2022-11-02T20:56:21.405Z,1.17
2022-11-02T20:58:55.508Z,1.40
2022-11-02T21:01:24.428Z,0.90
2022-11-02T21:03:53.190Z,1.07
2022-11-02T21:06:21.609Z,0.90
2022-11-02T21:08:50.040Z,1.47
2022-11-02T21:11:37.325Z,0.80
2022-11-02T21:14:05.764Z,0.90
2022-11-02T21:16:35.415Z,0.87
2022-11-02T21:19:03.914Z,1.13
2022-11-02T21:21:32.353Z,0.97
2022-11-02T21:24:00.853Z,1.10
2022-11-02T21:26:30.675Z,1.00
2022-11-02T21:28:59.125Z,0.80
2022-11-02T21:31:27.694Z,0.70
2022-11-02T21:33:56.164Z,0.70
2022-11-02T21:36:24.603Z,0.60
2022-11-02T21:38:53.295Z,1.20
2022-11-02T21:41:22.390Z,0.93
2022-11-02T21:43:52.309Z,0.73
2022-11-02T21:46:21.074Z,0.90
2022-11-02T21:48:49.810Z,0.80
2022-11-02T21:51:19.130Z,0.80
2022-11-02T21:53:48.432Z,0.77
2022-11-02T21:56:17.628Z,0.80
2022-11-02T21:58:46.700Z,0.80
2022-11-02T22:01:34.910Z,0.80
2022-11-02T22:04:03.683Z,1.00
2022-11-02T22:06:32.451Z,0.83
2022-11-02T22:09:01.047Z,0.70
2022-11-02T22:11:29.501Z,0.90
2022-11-02T22:13:58.896Z,0.70
2022-11-02T22:16:29.412Z,0.60
2022-11-02T22:18:58.395Z,0.77
2022-11-02T22:21:27.589Z,0.80
2022-11-02T22:23:56.591Z,0.80
2022-11-02T22:26:25.640Z,0.90
2022-11-02T22:28:54.486Z,0.90
2022-11-02T22:31:23.847Z,1.03
2022-11-02T22:33:54.306Z,1.20
2022-11-02T22:36:23.711Z,0.80
2022-11-02T22:38:51.548Z,1.33
2022-11-02T22:41:21.468Z,1.10
2022-11-02T22:43:50.433Z,1.03
2022-11-02T22:46:18.876Z,0.67
2022-11-02T22:48:47.456Z,1.13
2022-11-02T22:51:19.092Z,1.17
2022-11-02T22:53:47.539Z,1.43
2022-11-02T22:56:16.599Z,0.90
2022-11-02T22:58:45.956Z,1.20
2022-11-02T23:01:16.459Z,1.17
2022-11-02T23:03:45.249Z,0.90
2022-11-02T23:06:14.232Z,1.70
2022-11-02T23:08:45.830Z,0.83
2022-11-02T23:11:22.568Z,1.00
2022-11-02T23:13:51.838Z,1.10
2022-11-02T23:16:23.783Z,0.90
2022-11-02T23:19:11.046Z,1.00
2022-11-02T23:21:39.544Z,1.03
2022-11-02T23:24:27.584Z,1.00
2022-11-02T23:26:56.227Z,1.10
2022-11-02T23:29:42.337Z,1.00
2022-11-02T23:32:26.986Z,1.37
2022-11-02T23:35:10.057Z,1.37
2022-11-02T23:37:38.864Z,1.27
2022-11-02T23:40:09.493Z,1.17
2022-11-02T23:42:37.921Z,1.80
2022-11-02T23:45:06.800Z,1.23
2022-11-02T23:47:51.919Z,1.30
2022-11-02T23:50:35.062Z,1.37
2022-11-02T23:53:21.380Z,1.30
2022-11-02T23:56:09.623Z,1.30
2022-11-02T23:58:38.189Z,1.37
